Time;durP1;ratioP1;P1;durP2;ratioP2;P2;SDS_P1;SDS_P2;PMS_P1;PMS_P2;Temp;Humidity;BMP_temperature;BMP_pressure;BME280_temperature;BME280_humidity;BME280_pressure;Samples;Min_cycle;Max_cycle;Signal;HPM_P1;HPM_P2
2021/10/24 00:03:34;;;;;;;16.8;25.3;;;;;;;4.2;77.4;100110;;;;
2021/10/24 00:13:34;;;;;;;16.8;25.3;;;;;;;4;78.1;100130;;;;
2021/10/24 00:23:35;;;;;;;16.8;25.3;;;;;;;3.7;78.1;100130;;;;
2021/10/24 00:34:34;;;;;;;17.4;25;;;;;;;3.6;79.2;100140;;;;
2021/10/24 00:44:34;;;;;;;17.4;25;;;;;;;3.8;80.1;100130;;;;
2021/10/24 00:54:34;;;;;;;17.4;25;;;;;;;3.9;80.4;100140;;;;
2021/10/24 01:05:36;;;;;;;17.4;22.8;;;;;;;4.3;80.3;100130;;;;
2021/10/24 01:15:34;;;;;;;17.4;22.8;;;;;;;4.7;79.6;100130;;;;
2021/10/24 01:25:34;;;;;;;17.4;22.8;;;;;;;5.1;78.6;100130;;;;
2021/10/24 01:35:34;;;;;;;17.2;24.5;;;;;;;5.2;77.9;100140;;;;
2021/10/24 01:45:34;;;;;;;17.2;24.5;;;;;;;5.4;77.6;100150;;;;
2021/10/24 01:55:34;;;;;;;17.2;24.5;;;;;;;5.5;77.2;100150;;;;
2021/10/24 02:05:34;;;;;;;17.6;24.9;;;;;;;5.6;76.9;100150;;;;
2021/10/24 02:15:35;;;;;;;17.6;24.9;;;;;;;5.6;76.7;100150;;;;
2021/10/24 02:26:34;;;;;;;17.6;24.9;;;;;;;5.6;76.8;100160;;;;
2021/10/24 02:36:34;;;;;;;18.1;24.8;;;;;;;5.6;76.6;100160;;;;
2021/10/24 02:46:34;;;;;;;18.1;24.8;;;;;;;5.4;76.6;100160;;;;
2021/10/24 02:56:34;;;;;;;18.1;24.8;;;;;;;5.2;77;100170;;;;
2021/10/24 03:06:34;;;;;;;17.5;25.6;;;;;;;4.9;77.5;100180;;;;
2021/10/24 03:16:34;;;;;;;17.5;25.6;;;;;;;4.6;78.2;100180;;;;
2021/10/24 03:26:34;;;;;;;17.5;25.6;;;;;;;4.3;78.9;100180;;;;
2021/10/24 03:36:34;;;;;;;17.4;22.8;;;;;;;4;79.1;100200;;;;
2021/10/24 03:46:35;;;;;;;17.4;22.8;;;;;;;3.9;80;100200;;;;
2021/10/24 03:56:34;;;;;;;17.4;22.8;;;;;;;3.7;80.2;100210;;;;
2021/10/24 04:06:34;;;;;;;18.3;22.4;;;;;;;3.5;80.6;100210;;;;
2021/10/24 04:17:34;;;;;;;18.3;22.4;;;;;;;3.3;80.6;100190;;;;
2021/10/24 04:27:34;;;;;;;18.3;22.4;;;;;;;3.2;81;100200;;;;
2021/10/24 04:37:35;;;;;;;17.3;22.4;;;;;;;3;81.2;100230;;;;
2021/10/24 04:47:34;;;;;;;17.3;22.4;;;;;;;2.8;81;100240;;;;
2021/10/24 04:57:35;;;;;;;17.3;22.4;;;;;;;2.7;82.4;100250;;;;
2021/10/24 05:07:35;;;;;;;18.5;27.4;;;;;;;2.6;82.3;100250;;;;
2021/10/24 05:17:34;;;;;;;18.5;27.4;;;;;;;2.8;83.5;100260;;;;
2021/10/24 05:27:34;;;;;;;18.5;27.4;;;;;;;2.7;83.1;100270;;;;
2021/10/24 05:37:34;;;;;;;20.5;30.4;;;;;;;2.9;83.7;100290;;;;
2021/10/24 05:47:34;;;;;;;20.5;30.4;;;;;;;3;83.1;100310;;;;
2021/10/24 05:57:34;;;;;;;20.5;30.4;;;;;;;3;82.9;100310;;;;
2021/10/24 06:07:35;;;;;;;17.4;28.7;;;;;;;3.1;83;100320;;;;
2021/10/24 06:17:34;;;;;;;17.4;28.7;;;;;;;3.3;83.4;100330;;;;
2021/10/24 06:27:34;;;;;;;17.4;28.7;;;;;;;3.6;83.4;100340;;;;
2021/10/24 06:37:35;;;;;;;16;22.8;;;;;;;3.8;83.1;100340;;;;
2021/10/24 06:47:34;;;;;;;16;22.8;;;;;;;4;82.9;100350;;;;
2021/10/24 06:57:34;;;;;;;16;22.8;;;;;;;4.4;82.1;100360;;;;
2021/10/24 07:07:34;;;;;;;19.9;28.1;;;;;;;4.7;81.4;100360;;;;
2021/10/24 07:17:34;;;;;;;19.9;28.1;;;;;;;5;80.7;100370;;;;
2021/10/24 07:27:34;;;;;;;19.9;28.1;;;;;;;5.4;79.7;100370;;;;
2021/10/24 07:37:34;;;;;;;16;21.6;;;;;;;5.7;78.6;100370;;;;
2021/10/24 07:47:34;;;;;;;16;21.6;;;;;;;6.1;77.1;100370;;;;
2021/10/24 07:57:35;;;;;;;16;21.6;;;;;;;6.5;77.1;100380;;;;
2021/10/24 08:07:34;;;;;;;16.2;20.5;;;;;;;6.8;75.5;100380;;;;
2021/10/24 08:17:34;;;;;;;16.2;20.5;;;;;;;7.2;75.3;100380;;;;
2021/10/24 08:27:35;;;;;;;16.2;20.5;;;;;;;7.5;73.6;100390;;;;
2021/10/24 08:37:34;;;;;;;17.1;30.1;;;;;;;7.9;72.9;100400;;;;
2021/10/24 08:47:35;;;;;;;17.1;30.1;;;;;;;8.1;71.4;100400;;;;
2021/10/24 08:57:34;;;;;;;17.1;30.1;;;;;;;8.4;71.5;100400;;;;
2021/10/24 09:07:34;;;;;;;17;22.3;;;;;;;8.6;70.8;100410;;;;
2021/10/24 09:17:36;;;;;;;17;22.3;;;;;;;9;69.5;100420;;;;
2021/10/24 09:27:34;;;;;;;12.8;20.6;;;;;;;9.4;67.4;100420;;;;
2021/10/24 09:37:35;;;;;;;12.8;20.6;;;;;;;9.6;66.4;100420;;;;
2021/10/24 09:47:34;;;;;;;12.8;20.6;;;;;;;9.9;65.1;100420;;;;
2021/10/24 09:57:34;;;;;;;10.5;18.1;;;;;;;10.2;64.3;100420;;;;
2021/10/24 10:07:34;;;;;;;10.5;18.1;;;;;;;10.5;63.5;100420;;;;
2021/10/24 10:17:35;;;;;;;10.5;18.1;;;;;;;10.4;62.1;100410;;;;
2021/10/24 10:27:35;;;;;;;6.5;9.8;;;;;;;10.6;60.6;100420;;;;
2021/10/24 10:37:34;;;;;;;6.5;9.8;;;;;;;10.7;58.4;100410;;;;
2021/10/24 10:47:34;;;;;;;6.5;9.8;;;;;;;10.4;57.2;100400;;;;
2021/10/24 10:57:34;;;;;;;4.4;10.2;;;;;;;10.8;56.3;100390;;;;
2021/10/24 11:07:34;;;;;;;4.4;10.2;;;;;;;11.2;52.7;100390;;;;
2021/10/24 11:18:35;;;;;;;4.4;10.2;;;;;;;11.5;53.4;100380;;;;
2021/10/24 11:29:35;;;;;;;3.2;7.6;;;;;;;12;51.7;100380;;;;
2021/10/24 11:39:34;;;;;;;3.2;7.6;;;;;;;12.1;52.1;100370;;;;
2021/10/24 11:49:35;;;;;;;3.2;7.6;;;;;;;12.5;49.7;100360;;;;
2021/10/24 11:59:37;;;;;;;3;6.7;;;;;;;12.5;48.9;100350;;;;
2021/10/24 12:09:35;;;;;;;3;6.7;;;;;;;11.6;49.6;100340;;;;
2021/10/24 12:19:36;;;;;;;3;6.7;;;;;;;12.4;49;100330;;;;
2021/10/24 12:29:35;;;;;;;3;6.5;;;;;;;12.6;48.6;100320;;;;
2021/10/24 12:39:35;;;;;;;3;6.5;;;;;;;12.4;49;100320;;;;
2021/10/24 12:49:36;;;;;;;3;6.5;;;;;;;11.9;48.8;100300;;;;
2021/10/24 12:59:35;;;;;;;3.1;7.7;;;;;;;11.9;49;100310;;;;
2021/10/24 13:09:35;;;;;;;3.1;7.7;;;;;;;12.2;49.1;100310;;;;
2021/10/24 13:19:35;;;;;;;3.1;7.7;;;;;;;12.5;48.3;100280;;;;
2021/10/24 13:29:35;;;;;;;3.1;6.8;;;;;;;12.4;48.3;100280;;;;
2021/10/24 13:39:35;;;;;;;3.1;6.8;;;;;;;12.4;49.7;100280;;;;
2021/10/24 13:49:35;;;;;;;3.1;6.8;;;;;;;12.1;51.4;100280;;;;
2021/10/24 13:59:35;;;;;;;3;8.7;;;;;;;11.7;49;100270;;;;
2021/10/24 14:09:35;;;;;;;3;8.7;;;;;;;11.5;49.1;100260;;;;
2021/10/24 14:19:35;;;;;;;3;8.7;;;;;;;11.2;49.6;100260;;;;
2021/10/24 14:29:38;;;;;;;2.6;5.3;;;;;;;10.8;50.8;100250;;;;
2021/10/24 14:39:35;;;;;;;2.6;5.3;;;;;;;10.3;50.7;100250;;;;
2021/10/24 14:49:35;;;;;;;2.6;5.3;;;;;;;9.9;52;100240;;;;
2021/10/24 15:00:35;;;;;;;3.2;6.7;;;;;;;10;52.5;100220;;;;
2021/10/24 15:10:35;;;;;;;2.4;7.6;;;;;;;9.4;54.1;100210;;;;
2021/10/24 15:21:39;;;;;;;2.4;7.6;;;;;;;9;55.9;100200;;;;
2021/10/24 15:30:35;;;;;;;2.4;7.6;;;;;;;8.6;57.3;100200;;;;
2021/10/24 15:40:35;;;;;;;10.8;17.1;;;;;;;8.2;59.4;100200;;;;
2021/10/24 15:50:35;;;;;;;10.8;17.1;;;;;;;7.8;60.9;100190;;;;
2021/10/24 16:00:35;;;;;;;10.8;17.1;;;;;;;7.3;62.3;100190;;;;
2021/10/24 16:10:35;;;;;;;9.7;14.6;;;;;;;7;63.8;100200;;;;
2021/10/24 16:21:35;;;;;;;9.7;14.6;;;;;;;6.6;64.6;100190;;;;
2021/10/24 16:31:36;;;;;;;9.7;14.6;;;;;;;6.4;65.4;100200;;;;
2021/10/24 16:41:35;;;;;;;13.3;19.3;;;;;;;6.2;66.7;100190;;;;
2021/10/24 16:51:35;;;;;;;13.3;19.3;;;;;;;6.1;67.4;100190;;;;
2021/10/24 17:01:35;;;;;;;13.3;19.3;;;;;;;5.9;67.9;100180;;;;
2021/10/24 17:11:35;;;;;;;19.8;25.9;;;;;;;5.7;68.3;100180;;;;
2021/10/24 17:21:35;;;;;;;19.8;25.9;;;;;;;5.5;68.1;100180;;;;
2021/10/24 17:31:35;;;;;;;19.8;25.9;;;;;;;5.3;69.3;100170;;;;
2021/10/24 17:41:35;;;;;;;20.3;29.5;;;;;;;5.1;69.5;100160;;;;
2021/10/24 17:51:35;;;;;;;20.3;29.5;;;;;;;5;70.3;100150;;;;
2021/10/24 18:01:35;;;;;;;20.3;29.5;;;;;;;5;70.4;100140;;;;
2021/10/24 18:11:35;;;;;;;21.7;27.8;;;;;;;4.9;71.1;100140;;;;
2021/10/24 18:21:35;;;;;;;21.7;27.8;;;;;;;4.7;71.1;100120;;;;
2021/10/24 18:31:35;;;;;;;21.7;27.8;;;;;;;4.8;71.3;100110;;;;
2021/10/24 18:41:35;;;;;;;17.2;22.5;;;;;;;4.7;71.5;100110;;;;
2021/10/24 18:51:35;;;;;;;17.2;22.5;;;;;;;4.6;71.2;100110;;;;
2021/10/24 19:01:35;;;;;;;17.2;22.5;;;;;;;4.5;71.8;100110;;;;
2021/10/24 19:11:35;;;;;;;15.2;21.4;;;;;;;4.4;71.3;100100;;;;
2021/10/24 19:22:36;;;;;;;15.2;21.4;;;;;;;4;72.5;100120;;;;
2021/10/24 19:32:35;;;;;;;15.2;21.4;;;;;;;3.7;72.9;100110;;;;
2021/10/24 19:42:35;;;;;;;34.5;43.9;;;;;;;3.4;73.6;100100;;;;
2021/10/24 19:52:35;;;;;;;34.5;43.9;;;;;;;3.2;74.7;100100;;;;
2021/10/24 20:02:35;;;;;;;34.5;43.9;;;;;;;3.1;76.1;100090;;;;
2021/10/24 20:12:35;;;;;;;27.8;35.2;;;;;;;3;75.9;100100;;;;
2021/10/24 20:22:35;;;;;;;27.8;35.2;;;;;;;2.8;75.9;100100;;;;
2021/10/24 20:32:35;;;;;;;27.8;35.2;;;;;;;2.6;76.2;100100;;;;
2021/10/24 20:42:35;;;;;;;15.4;21.9;;;;;;;2.4;76.3;100100;;;;
2021/10/24 20:52:35;;;;;;;15.4;21.9;;;;;;;2.2;76.2;100110;;;;
2021/10/24 21:02:35;;;;;;;15.4;21.9;;;;;;;2.1;77.8;100100;;;;
2021/10/24 21:12:35;;;;;;;18.8;24.2;;;;;;;2;77.5;100100;;;;
2021/10/24 21:22:35;;;;;;;18.8;24.2;;;;;;;1.8;77.2;100100;;;;
2021/10/24 21:32:35;;;;;;;18.8;24.2;;;;;;;1.7;78.1;100100;;;;
2021/10/24 21:42:35;;;;;;;26.1;33.3;;;;;;;1.5;78;100100;;;;
2021/10/24 21:52:35;;;;;;;26.1;33.3;;;;;;;1.4;78.2;100090;;;;
2021/10/24 22:02:35;;;;;;;26.1;33.3;;;;;;;1.3;80.1;100080;;;;
2021/10/24 22:12:35;;;;;;;30.5;36.1;;;;;;;1.4;80.7;100080;;;;
2021/10/24 22:22:35;;;;;;;30.5;36.1;;;;;;;1.2;79.5;100080;;;;
2021/10/24 22:32:35;;;;;;;30.5;36.1;;;;;;;1.1;79.2;100080;;;;
2021/10/24 22:42:36;;;;;;;26.4;34.1;;;;;;;0.9;79.1;100080;;;;
2021/10/24 22:52:35;;;;;;;26.4;34.1;;;;;;;0.8;78.9;100080;;;;
2021/10/24 23:02:35;;;;;;;26.4;34.1;;;;;;;0.6;78.7;100070;;;;
2021/10/24 23:13:35;;;;;;;34;38.9;;;;;;;0.6;80.9;100070;;;;
2021/10/24 23:23:35;;;;;;;34;38.9;;;;;;;0.5;80.3;100070;;;;
2021/10/24 23:33:35;;;;;;;34;38.9;;;;;;;0.5;80.8;100070;;;;
2021/10/24 23:43:35;;;;;;;27.8;32.9;;;;;;;0.5;81.2;100060;;;;
2021/10/24 23:53:35;;;;;;;27.8;32.9;;;;;;;0.5;81.3;100050;;;;
